Details for EasyJet at EGPF




Go Back


Latest METAR
Local Time

EGPF 232350Z AUTO 06006KT 9999 SCT027 00/M03 Q1021

23/02/2018, 23:58:34

Description
Results
EasyJet Logo
Number of Pilots based at EGPF
2 Pilots Based here
Number of EasyJet Flights Departed from EGPF
9 Flights Departed
Number of EasyJet Flights Arrived at EGPF
8 Flights Arrived
Number of EasyJet Schedules Departing from EGPF
71 Schedules
Number of EasyJet Schedules Arriving at EGPF
72 Schedules
Number of EasyJet Schedules Departing from EGPF availible today
23 Schedules Today
Number of EasyJet Schedules Arriving at EGPF availible today
23 Schedules Today
Average Landing Rate at EGPF
-212 fpm
EasyJet Average Landing Rate at EGPF
-125 fpm
Total Fuel Purchased at EGPF by EasyJet
35,728.56 kgs / 78,767.18 lbs

Pilots Based at EGPF


Pilot ID
Pilot Name
Pilot Rank
No. of Flights
No. of Flying Hours
Renaat Meeuws
32
54.26
Thomas Bell
305
516.22
Content